sensor_id;sensor_type;location;lat;lon;timestamp;P1;durP1;ratioP1;P2;durP2;ratioP2
74788;SDS011;63313;48.258;12.518;2022-09-09T00:04:38;3.29;;;2.2800000000000002;;
74788;SDS011;63313;48.258;12.518;2022-09-09T00:10:13;3.5100000000000002;;;1.9200000000000004;;
74788;SDS011;63313;48.258;12.518;2022-09-09T00:15:43;2.21;;;2.0100000000000002;;
74788;SDS011;63313;48.258;12.518;2022-09-09T00:21:12;3.59;;;2.12;;
74788;SDS011;63313;48.258;12.518;2022-09-09T00:26:40;4.08;;;1.8699999999999999;;
74788;SDS011;63313;48.258;12.518;2022-09-09T00:32:11;3.25;;;2.3;;
74788;SDS011;63313;48.258;12.518;2022-09-09T00:37:39;6.040000000000001;;;2.4699999999999998;;
74788;SDS011;63313;48.258;12.518;2022-09-09T00:43:10;6.08;;;2.37;;
74788;SDS011;63313;48.258;12.518;2022-09-09T00:48:46;6.4;;;3.5700000000000003;;
74788;SDS011;63313;48.258;12.518;2022-09-09T00:54:21;5.450000000000001;;;3.5200000000000005;;
74788;SDS011;63313;48.258;12.518;2022-09-09T00:59:51;10.24;;;3.8899999999999997;;
74788;SDS011;63313;48.258;12.518;2022-09-09T01:05:20;7.15;;;4.029999999999999;;
74788;SDS011;63313;48.258;12.518;2022-09-09T01:10:50;7.44;;;4.65;;
74788;SDS011;63313;48.258;12.518;2022-09-09T01:16:18;8.569999999999999;;;4.26;;
74788;SDS011;63313;48.258;12.518;2022-09-09T01:21:47;6.04;;;3.6499999999999995;;
74788;SDS011;63313;48.258;12.518;2022-09-09T01:27:16;6.75;;;4.090000000000001;;
74788;SDS011;63313;48.258;12.518;2022-09-09T01:32:45;5.26;;;3.53;;
74788;SDS011;63313;48.258;12.518;2022-09-09T01:38:13;4.3100000000000005;;;2.74;;
74788;SDS011;63313;48.258;12.518;2022-09-09T01:43:40;4.790000000000001;;;2.8;;
74788;SDS011;63313;48.258;12.518;2022-09-09T01:49:08;7.2700000000000005;;;3.41;;
74788;SDS011;63313;48.258;12.518;2022-09-09T01:54:35;10.03;;;3.6100000000000003;;
74788;SDS011;63313;48.258;12.518;2022-09-09T02:00:03;5.89;;;4.17;;
74788;SDS011;63313;48.258;12.518;2022-09-09T02:05:33;7.6899999999999995;;;3.87;;
74788;SDS011;63313;48.258;12.518;2022-09-09T02:11:04;7.859999999999999;;;4.1;;
74788;SDS011;63313;48.258;12.518;2022-09-09T02:16:33;9.25;;;4.42;;
74788;SDS011;63313;48.258;12.518;2022-09-09T02:22:02;5.76;;;3.3099999999999996;;
74788;SDS011;63313;48.258;12.518;2022-09-09T02:27:29;5.05;;;3.1300000000000003;;
74788;SDS011;63313;48.258;12.518;2022-09-09T02:32:56;4.51;;;3.2;;
74788;SDS011;63313;48.258;12.518;2022-09-09T02:38:25;3.0999999999999996;;;2.8299999999999996;;
74788;SDS011;63313;48.258;12.518;2022-09-09T02:43:54;2.6700000000000004;;;2.16;;
74788;SDS011;63313;48.258;12.518;2022-09-09T02:49:22;3.3;;;2.12;;
74788;SDS011;63313;48.258;12.518;2022-09-09T02:54:52;2.63;;;2.09;;
74788;SDS011;63313;48.258;12.518;2022-09-09T03:00:22;2.09;;;1.9600000000000002;;
74788;SDS011;63313;48.258;12.518;2022-09-09T03:05:49;2.2600000000000002;;;2.0200000000000005;;
74788;SDS011;63313;48.258;12.518;2022-09-09T03:11:17;2.2399999999999998;;;2.1399999999999997;;
74788;SDS011;63313;48.258;12.518;2022-09-09T03:16:44;5.6899999999999995;;;1.97;;
74788;SDS011;63313;48.258;12.518;2022-09-09T03:22:11;2.33;;;2.05;;
74788;SDS011;63313;48.258;12.518;2022-09-09T03:27:38;2.06;;;1.7899999999999998;;
74788;SDS011;63313;48.258;12.518;2022-09-09T03:33:05;2.12;;;1.97;;
74788;SDS011;63313;48.258;12.518;2022-09-09T03:38:32;2.17;;;2.0000000000000004;;
74788;SDS011;63313;48.258;12.518;2022-09-09T03:43:59;3.4799999999999995;;;2.28;;
74788;SDS011;63313;48.258;12.518;2022-09-09T03:49:26;6.8;;;3.0200000000000005;;
74788;SDS011;63313;48.258;12.518;2022-09-09T03:54:53;8.190000000000001;;;3.69;;
74788;SDS011;63313;48.258;12.518;2022-09-09T04:00:21;14.680000000000001;;;5.0600000000000005;;
74788;SDS011;63313;48.258;12.518;2022-09-09T04:05:48;20.770000000000003;;;6.039999999999999;;
74788;SDS011;63313;48.258;12.518;2022-09-09T04:11:15;14.720000000000002;;;5.779999999999999;;
74788;SDS011;63313;48.258;12.518;2022-09-09T04:16:42;22.110000000000003;;;6.220000000000001;;
74788;SDS011;63313;48.258;12.518;2022-09-09T04:22:10;23.779999999999998;;;7.7;;
74788;SDS011;63313;48.258;12.518;2022-09-09T04:27:37;22.740000000000002;;;7.7;;
74788;SDS011;63313;48.258;12.518;2022-09-09T04:33:04;11.8;;;2.8200000000000003;;
74788;SDS011;63313;48.258;12.518;2022-09-09T04:38:31;6.57;;;3.1500000000000004;;
74788;SDS011;63313;48.258;12.518;2022-09-09T04:43:58;8.42;;;3.2600000000000002;;
74788;SDS011;63313;48.258;12.518;2022-09-09T04:49:25;11.84;;;4.199999999999999;;
74788;SDS011;63313;48.258;12.518;2022-09-09T04:54:52;6.88;;;4.01;;
74788;SDS011;63313;48.258;12.518;2022-09-09T05:00:19;10.349999999999998;;;4.33;;
74788;SDS011;63313;48.258;12.518;2022-09-09T05:05:46;10.889999999999999;;;6.000000000000001;;
74788;SDS011;63313;48.258;12.518;2022-09-09T05:11:14;15.459999999999999;;;7.7799999999999985;;
74788;SDS011;63313;48.258;12.518;2022-09-09T05:16:41;25.299999999999997;;;16.75;;
74788;SDS011;63313;48.258;12.518;2022-09-09T05:22:09;29.329999999999995;;;15.579999999999998;;
74788;SDS011;63313;48.258;12.518;2022-09-09T05:27:36;20.159999999999997;;;10.95;;
74788;SDS011;63313;48.258;12.518;2022-09-09T05:33:03;12.16;;;6.45;;
74788;SDS011;63313;48.258;12.518;2022-09-09T05:38:31;10.77;;;6.39;;
74788;SDS011;63313;48.258;12.518;2022-09-09T05:43:58;14.15;;;6.35;;
74788;SDS011;63313;48.258;12.518;2022-09-09T05:49:25;10.93;;;5.5200000000000005;;
74788;SDS011;63313;48.258;12.518;2022-09-09T05:54:52;18.66;;;5.7;;
74788;SDS011;63313;48.258;12.518;2022-09-09T06:00:19;17.630000000000003;;;6.7299999999999995;;
74788;SDS011;63313;48.258;12.518;2022-09-09T06:05:46;19.279999999999998;;;8.42;;
74788;SDS011;63313;48.258;12.518;2022-09-09T06:11:14;23.25;;;8.319999999999999;;
74788;SDS011;63313;48.258;12.518;2022-09-09T06:16:41;13.73;;;6.8;;
74788;SDS011;63313;48.258;12.518;2022-09-09T06:22:09;24.4;;;7.410000000000001;;
74788;SDS011;63313;48.258;12.518;2022-09-09T06:27:36;13.570000000000002;;;5.17;;
74788;SDS011;63313;48.258;12.518;2022-09-09T06:33:03;8.94;;;4.84;;
74788;SDS011;63313;48.258;12.518;2022-09-09T06:38:30;15.320000000000002;;;4.7;;
74788;SDS011;63313;48.258;12.518;2022-09-09T06:43:57;9.32;;;4.31;;
74788;SDS011;63313;48.258;12.518;2022-09-09T06:49:24;9.95;;;3.4899999999999998;;
74788;SDS011;63313;48.258;12.518;2022-09-09T06:54:51;9.73;;;3.8600000000000003;;
74788;SDS011;63313;48.258;12.518;2022-09-09T07:00:18;4.51;;;2.9099999999999997;;
74788;SDS011;63313;48.258;12.518;2022-09-09T07:05:53;11.760000000000002;;;2.7699999999999996;;
74788;SDS011;63313;48.258;12.518;2022-09-09T07:11:21;6.02;;;2.8299999999999996;;
74788;SDS011;63313;48.258;12.518;2022-09-09T07:16:48;6.6;;;3.0099999999999993;;
74788;SDS011;63313;48.258;12.518;2022-09-09T07:22:15;8.879999999999999;;;3.2299999999999995;;
74788;SDS011;63313;48.258;12.518;2022-09-09T07:27:42;8.57;;;3.54;;
74788;SDS011;63313;48.258;12.518;2022-09-09T07:33:09;8.06;;;3.66;;
74788;SDS011;63313;48.258;12.518;2022-09-09T07:38:38;12.129999999999999;;;3.29;;
74788;SDS011;63313;48.258;12.518;2022-09-09T07:44:06;10.59;;;3.2;;
74788;SDS011;63313;48.258;12.518;2022-09-09T07:49:33;6.540000000000001;;;2.98;;
74788;SDS011;63313;48.258;12.518;2022-09-09T07:55:00;7.5600000000000005;;;2.47;;
74788;SDS011;63313;48.258;12.518;2022-09-09T08:00:27;7.18;;;2.08;;
74788;SDS011;63313;48.258;12.518;2022-09-09T08:05:59;5.110000000000001;;;2.0300000000000002;;
74788;SDS011;63313;48.258;12.518;2022-09-09T08:11:27;5.049999999999999;;;1.8999999999999997;;
74788;SDS011;63313;48.258;12.518;2022-09-09T08:16:54;4.589999999999999;;;1.65;;
74788;SDS011;63313;48.258;12.518;2022-09-09T08:22:21;3.6399999999999997;;;2.13;;
74788;SDS011;63313;48.258;12.518;2022-09-09T08:27:48;1.9299999999999997;;;1.7700000000000002;;
74788;SDS011;63313;48.258;12.518;2022-09-09T08:33:15;3.3600000000000003;;;1.9100000000000001;;
74788;SDS011;63313;48.258;12.518;2022-09-09T08:38:43;4.2299999999999995;;;1.7700000000000002;;
74788;SDS011;63313;48.258;12.518;2022-09-09T08:44:12;4.41;;;1.9;;
74788;SDS011;63313;48.258;12.518;2022-09-09T08:49:47;10.93;;;2.09;;
74788;SDS011;63313;48.258;12.518;2022-09-09T08:55:21;1.9300000000000002;;;1.5999999999999999;;
74788;SDS011;63313;48.258;12.518;2022-09-09T09:00:57;2.88;;;1.6800000000000002;;
74788;SDS011;63313;48.258;12.518;2022-09-09T09:06:26;5.16;;;1.9099999999999997;;
74788;SDS011;63313;48.258;12.518;2022-09-09T09:11:58;2.49;;;1.8799999999999997;;
74788;SDS011;63313;48.258;12.518;2022-09-09T09:17:27;3.8299999999999996;;;1.8199999999999998;;
74788;SDS011;63313;48.258;12.518;2022-09-09T09:22:55;2.5100000000000002;;;2.0500000000000003;;
74788;SDS011;63313;48.258;12.518;2022-09-09T09:28:26;4.0;;;1.6299999999999997;;
74788;SDS011;63313;48.258;12.518;2022-09-09T09:33:54;3.37;;;1.8;;
74788;SDS011;63313;48.258;12.518;2022-09-09T09:39:22;2.7399999999999998;;;1.7100000000000002;;
74788;SDS011;63313;48.258;12.518;2022-09-09T09:44:50;1.6800000000000002;;;1.47;;
74788;SDS011;63313;48.258;12.518;2022-09-09T09:50:18;1.43;;;1.17;;
74788;SDS011;63313;48.258;12.518;2022-09-09T09:55:49;3.17;;;1.48;;
74788;SDS011;63313;48.258;12.518;2022-09-09T10:01:19;1.5899999999999999;;;1.46;;
74788;SDS011;63313;48.258;12.518;2022-09-09T10:06:47;3.8899999999999997;;;1.5;;
74788;SDS011;63313;48.258;12.518;2022-09-09T10:12:17;2.1700000000000004;;;1.32;;
74788;SDS011;63313;48.258;12.518;2022-09-09T10:17:49;2.08;;;1.3800000000000001;;
74788;SDS011;63313;48.258;12.518;2022-09-09T10:23:24;2.88;;;1.4300000000000002;;
74788;SDS011;63313;48.258;12.518;2022-09-09T10:28:57;5.62;;;1.3000000000000003;;
74788;SDS011;63313;48.258;12.518;2022-09-09T10:34:35;5.32;;;1.7;;
74788;SDS011;63313;48.258;12.518;2022-09-09T10:40:12;2.75;;;1.55;;
74788;SDS011;63313;48.258;12.518;2022-09-09T10:45:46;1.9200000000000004;;;1.52;;
74788;SDS011;63313;48.258;12.518;2022-09-09T10:51:19;1.7299999999999998;;;1.52;;
74788;SDS011;63313;48.258;12.518;2022-09-09T10:56:49;3.63;;;1.8199999999999998;;
74788;SDS011;63313;48.258;12.518;2022-09-09T11:02:19;4.390000000000001;;;1.23;;
74788;SDS011;63313;48.258;12.518;2022-09-09T11:07:49;1.7400000000000002;;;1.51;;
74788;SDS011;63313;48.258;12.518;2022-09-09T11:13:19;3.6100000000000003;;;2.03;;
74788;SDS011;63313;48.258;12.518;2022-09-09T11:18:47;3.7199999999999998;;;1.73;;
74788;SDS011;63313;48.258;12.518;2022-09-09T11:24:16;8.239999999999998;;;1.69;;
74788;SDS011;63313;48.258;12.518;2022-09-09T11:29:49;3.1700000000000004;;;1.8;;
74788;SDS011;63313;48.258;12.518;2022-09-09T11:35:22;2.16;;;1.53;;
74788;SDS011;63313;48.258;12.518;2022-09-09T11:40:56;2.41;;;1.73;;
74788;SDS011;63313;48.258;12.518;2022-09-09T11:46:32;2.0300000000000002;;;1.4200000000000002;;
74788;SDS011;63313;48.258;12.518;2022-09-09T11:52:10;3.87;;;1.4899999999999998;;
74788;SDS011;63313;48.258;12.518;2022-09-09T11:57:37;2.5;;;1.34;;
74788;SDS011;63313;48.258;12.518;2022-09-09T12:03:05;1.6199999999999999;;;1.1199999999999999;;
74788;SDS011;63313;48.258;12.518;2022-09-09T12:08:32;2.42;;;1.45;;
74788;SDS011;63313;48.258;12.518;2022-09-09T12:14:01;3.88;;;1.5499999999999998;;
74788;SDS011;63313;48.258;12.518;2022-09-09T12:19:28;2.92;;;1.31;;
74788;SDS011;63313;48.258;12.518;2022-09-09T12:24:57;3.6099999999999994;;;1.53;;
74788;SDS011;63313;48.258;12.518;2022-09-09T12:30:28;2.37;;;1.51;;
74788;SDS011;63313;48.258;12.518;2022-09-09T12:35:56;1.4899999999999998;;;1.3699999999999999;;
74788;SDS011;63313;48.258;12.518;2022-09-09T12:41:25;6.0;;;1.85;;
74788;SDS011;63313;48.258;12.518;2022-09-09T12:46:52;2.38;;;1.6199999999999999;;
74788;SDS011;63313;48.258;12.518;2022-09-09T12:52:21;6.04;;;1.55;;
74788;SDS011;63313;48.258;12.518;2022-09-09T12:57:49;2.4899999999999998;;;1.27;;
74788;SDS011;63313;48.258;12.518;2022-09-09T13:03:18;1.0799999999999998;;;1.0699999999999998;;
74788;SDS011;63313;48.258;12.518;2022-09-09T13:08:45;1.3200000000000003;;;1.19;;
74788;SDS011;63313;48.258;12.518;2022-09-09T13:14:12;1.46;;;1.2800000000000002;;
74788;SDS011;63313;48.258;12.518;2022-09-09T13:19:44;3.0900000000000007;;;1.72;;
74788;SDS011;63313;48.258;12.518;2022-09-09T13:25:17;1.43;;;1.41;;
74788;SDS011;63313;48.258;12.518;2022-09-09T13:30:54;2.1;;;1.31;;
74788;SDS011;63313;48.258;12.518;2022-09-09T13:36:27;2.77;;;1.46;;
74788;SDS011;63313;48.258;12.518;2022-09-09T13:41:55;3.2700000000000005;;;1.31;;
74788;SDS011;63313;48.258;12.518;2022-09-09T13:47:26;0.85;;;0.85;;
74788;SDS011;63313;48.258;12.518;2022-09-09T13:52:55;0.7;;;0.7;;
74788;SDS011;63313;48.258;12.518;2022-09-09T13:58:22;0.86;;;0.6699999999999999;;
74788;SDS011;63313;48.258;12.518;2022-09-09T14:03:50;0.8400000000000001;;;0.8;;
74788;SDS011;63313;48.258;12.518;2022-09-09T14:09:17;1.95;;;0.8700000000000001;;
74788;SDS011;63313;48.258;12.518;2022-09-09T14:14:44;2.7800000000000002;;;0.7699999999999999;;
74788;SDS011;63313;48.258;12.518;2022-09-09T14:20:11;0.85;;;0.78;;
74788;SDS011;63313;48.258;12.518;2022-09-09T14:25:40;3.97;;;0.8400000000000001;;
74788;SDS011;63313;48.258;12.518;2022-09-09T14:31:07;2.0;;;0.9100000000000001;;
74788;SDS011;63313;48.258;12.518;2022-09-09T14:36:34;1.0899999999999999;;;0.8;;
74788;SDS011;63313;48.258;12.518;2022-09-09T14:42:02;0.7;;;0.7;;
74788;SDS011;63313;48.258;12.518;2022-09-09T14:47:29;1.02;;;0.6300000000000001;;
74788;SDS011;63313;48.258;12.518;2022-09-09T14:52:56;0.7700000000000001;;;0.6799999999999999;;
74788;SDS011;63313;48.258;12.518;2022-09-09T14:58:23;0.8099999999999999;;;0.75;;
74788;SDS011;63313;48.258;12.518;2022-09-09T15:03:50;1.26;;;0.71;;
74788;SDS011;63313;48.258;12.518;2022-09-09T15:09:18;0.53;;;0.53;;
74788;SDS011;63313;48.258;12.518;2022-09-09T15:14:45;2.18;;;0.8200000000000001;;
74788;SDS011;63313;48.258;12.518;2022-09-09T15:20:12;0.79;;;0.6799999999999999;;
74788;SDS011;63313;48.258;12.518;2022-09-09T15:25:40;3.0799999999999996;;;0.74;;
74788;SDS011;63313;48.258;12.518;2022-09-09T15:31:16;2.5700000000000003;;;1.2;;
74788;SDS011;63313;48.258;12.518;2022-09-09T15:36:44;0.7300000000000001;;;0.69;;
74788;SDS011;63313;48.258;12.518;2022-09-09T15:42:11;1.02;;;0.79;;
74788;SDS011;63313;48.258;12.518;2022-09-09T15:47:38;0.73;;;0.6900000000000001;;
74788;SDS011;63313;48.258;12.518;2022-09-09T15:53:05;0.75;;;0.75;;
74788;SDS011;63313;48.258;12.518;2022-09-09T15:58:33;1.3499999999999999;;;0.7;;
74788;SDS011;63313;48.258;12.518;2022-09-09T16:04:00;1.28;;;0.76;;
74788;SDS011;63313;48.258;12.518;2022-09-09T16:09:27;3.44;;;0.9400000000000001;;
74788;SDS011;63313;48.258;12.518;2022-09-09T16:14:54;1.72;;;0.71;;
74788;SDS011;63313;48.258;12.518;2022-09-09T16:20:21;2.6;;;0.99;;
74788;SDS011;63313;48.258;12.518;2022-09-09T16:25:52;1.03;;;0.9;;
74788;SDS011;63313;48.258;12.518;2022-09-09T16:31:22;0.74;;;0.69;;
74788;SDS011;63313;48.258;12.518;2022-09-09T16:36:49;2.1900000000000004;;;0.93;;
74788;SDS011;63313;48.258;12.518;2022-09-09T16:42:16;3.78;;;0.89;;
74788;SDS011;63313;48.258;12.518;2022-09-09T16:47:43;0.96;;;0.8300000000000001;;
74788;SDS011;63313;48.258;12.518;2022-09-09T16:53:10;1.24;;;0.8100000000000002;;
74788;SDS011;63313;48.258;12.518;2022-09-09T16:58:37;3.2;;;1.2599999999999998;;
74788;SDS011;63313;48.258;12.518;2022-09-09T17:04:06;1.1400000000000001;;;0.96;;
74788;SDS011;63313;48.258;12.518;2022-09-09T17:09:34;0.8099999999999999;;;0.8099999999999999;;
74788;SDS011;63313;48.258;12.518;2022-09-09T17:15:01;4.82;;;1.01;;
74788;SDS011;63313;48.258;12.518;2022-09-09T17:20:28;2.29;;;1.65;;
74788;SDS011;63313;48.258;12.518;2022-09-09T17:25:56;1.8199999999999998;;;1.6599999999999997;;
74788;SDS011;63313;48.258;12.518;2022-09-09T17:31:23;2.55;;;1.2799999999999998;;
74788;SDS011;63313;48.258;12.518;2022-09-09T17:36:50;3.1100000000000003;;;1.6300000000000001;;
74788;SDS011;63313;48.258;12.518;2022-09-09T17:42:18;2.13;;;1.69;;
74788;SDS011;63313;48.258;12.518;2022-09-09T17:47:45;2.7700000000000005;;;1.5299999999999998;;
74788;SDS011;63313;48.258;12.518;2022-09-09T17:53:12;1.65;;;1.5799999999999998;;
74788;SDS011;63313;48.258;12.518;2022-09-09T17:58:39;4.28;;;1.9099999999999997;;
74788;SDS011;63313;48.258;12.518;2022-09-09T18:04:07;3.8099999999999996;;;1.5999999999999999;;
74788;SDS011;63313;48.258;12.518;2022-09-09T18:09:35;2.0599999999999996;;;1.58;;
74788;SDS011;63313;48.258;12.518;2022-09-09T18:15:02;2.7399999999999993;;;2.1500000000000004;;
74788;SDS011;63313;48.258;12.518;2022-09-09T18:20:29;2.14;;;1.7399999999999998;;
74788;SDS011;63313;48.258;12.518;2022-09-09T18:25:56;3.2600000000000002;;;2.1500000000000004;;
74788;SDS011;63313;48.258;12.518;2022-09-09T18:31:24;2.25;;;2.0100000000000002;;
74788;SDS011;63313;48.258;12.518;2022-09-09T18:36:52;2.3500000000000005;;;2.0300000000000002;;
74788;SDS011;63313;48.258;12.518;2022-09-09T18:42:19;4.539999999999999;;;2.38;;
74788;SDS011;63313;48.258;12.518;2022-09-09T18:47:46;4.300000000000001;;;2.5;;
74788;SDS011;63313;48.258;12.518;2022-09-09T18:53:13;4.4399999999999995;;;2.2399999999999998;;
74788;SDS011;63313;48.258;12.518;2022-09-09T18:58:40;4.630000000000001;;;3.02;;
74788;SDS011;63313;48.258;12.518;2022-09-09T19:04:07;4.63;;;2.9799999999999995;;
74788;SDS011;63313;48.258;12.518;2022-09-09T19:09:34;3.63;;;3.1000000000000005;;
74788;SDS011;63313;48.258;12.518;2022-09-09T19:15:02;4.200000000000001;;;2.78;;
74788;SDS011;63313;48.258;12.518;2022-09-09T19:20:29;4.66;;;2.3;;
74788;SDS011;63313;48.258;12.518;2022-09-09T19:26:00;5.590000000000001;;;2.5699999999999994;;
74788;SDS011;63313;48.258;12.518;2022-09-09T19:31:27;3.689999999999999;;;2.0;;
74788;SDS011;63313;48.258;12.518;2022-09-09T19:36:55;2.0300000000000002;;;1.78;;
74788;SDS011;63313;48.258;12.518;2022-09-09T19:42:22;1.6800000000000002;;;1.52;;
74788;SDS011;63313;48.258;12.518;2022-09-09T19:47:49;3.7700000000000005;;;2.38;;
74788;SDS011;63313;48.258;12.518;2022-09-09T19:53:16;4.1;;;2.29;;
74788;SDS011;63313;48.258;12.518;2022-09-09T19:58:44;3.3299999999999996;;;2.37;;
74788;SDS011;63313;48.258;12.518;2022-09-09T20:04:12;2.92;;;1.85;;
74788;SDS011;63313;48.258;12.518;2022-09-09T20:09:40;3.41;;;2.64;;
74788;SDS011;63313;48.258;12.518;2022-09-09T20:15:07;8.680000000000001;;;3.2700000000000005;;
74788;SDS011;63313;48.258;12.518;2022-09-09T20:20:38;8.809999999999999;;;3.41;;
74788;SDS011;63313;48.258;12.518;2022-09-09T20:26:06;5.8500000000000005;;;3.15;;
74788;SDS011;63313;48.258;12.518;2022-09-09T20:31:34;6.09;;;2.29;;
74788;SDS011;63313;48.258;12.518;2022-09-09T20:37:02;4.81;;;1.21;;
74788;SDS011;63313;48.258;12.518;2022-09-09T20:42:29;1.02;;;0.74;;
74788;SDS011;63313;48.258;12.518;2022-09-09T20:47:56;3.5199999999999996;;;0.93;;
74788;SDS011;63313;48.258;12.518;2022-09-09T20:53:23;1.05;;;0.9200000000000002;;
74788;SDS011;63313;48.258;12.518;2022-09-09T20:58:50;5.47;;;0.96;;
74788;SDS011;63313;48.258;12.518;2022-09-09T21:04:17;2.25;;;0.86;;
74788;SDS011;63313;48.258;12.518;2022-09-09T21:09:45;4.409999999999999;;;0.8600000000000001;;
74788;SDS011;63313;48.258;12.518;2022-09-09T21:15:12;1.1;;;0.96;;
74788;SDS011;63313;48.258;12.518;2022-09-09T21:20:39;0.77;;;0.76;;
74788;SDS011;63313;48.258;12.518;2022-09-09T21:26:06;1.6500000000000004;;;1.2;;
74788;SDS011;63313;48.258;12.518;2022-09-09T21:31:34;1.6800000000000002;;;0.9799999999999999;;
74788;SDS011;63313;48.258;12.518;2022-09-09T21:37:01;4.41;;;1.19;;
74788;SDS011;63313;48.258;12.518;2022-09-09T21:42:28;4.21;;;1.4100000000000001;;
74788;SDS011;63313;48.258;12.518;2022-09-09T21:47:55;1.6400000000000001;;;1.1800000000000002;;
74788;SDS011;63313;48.258;12.518;2022-09-09T21:53:22;1.65;;;1.33;;
74788;SDS011;63313;48.258;12.518;2022-09-09T21:58:52;1.77;;;1.1999999999999997;;
74788;SDS011;63313;48.258;12.518;2022-09-09T22:04:20;3.54;;;1.12;;
74788;SDS011;63313;48.258;12.518;2022-09-09T22:09:47;2.0100000000000002;;;1.54;;
74788;SDS011;63313;48.258;12.518;2022-09-09T22:15:14;2.59;;;1.9199999999999995;;
74788;SDS011;63313;48.258;12.518;2022-09-09T22:20:42;2.07;;;1.5899999999999999;;
74788;SDS011;63313;48.258;12.518;2022-09-09T22:26:10;4.1;;;1.75;;
74788;SDS011;63313;48.258;12.518;2022-09-09T22:31:37;2.23;;;1.4;;
74788;SDS011;63313;48.258;12.518;2022-09-09T22:37:04;1.45;;;1.35;;
74788;SDS011;63313;48.258;12.518;2022-09-09T22:42:31;2.88;;;1.0799999999999998;;
74788;SDS011;63313;48.258;12.518;2022-09-09T22:47:59;2.9799999999999995;;;1.7799999999999998;;
74788;SDS011;63313;48.258;12.518;2022-09-09T22:53:26;1.53;;;1.4300000000000002;;
74788;SDS011;63313;48.258;12.518;2022-09-09T22:58:53;8.849999999999998;;;2.14;;
74788;SDS011;63313;48.258;12.518;2022-09-09T23:04:21;1.4;;;1.2100000000000002;;
74788;SDS011;63313;48.258;12.518;2022-09-09T23:09:48;3.29;;;1.24;;
74788;SDS011;63313;48.258;12.518;2022-09-09T23:15:15;5.58;;;1.44;;
74788;SDS011;63313;48.258;12.518;2022-09-09T23:20:42;2.74;;;1.36;;
74788;SDS011;63313;48.258;12.518;2022-09-09T23:26:10;1.58;;;1.27;;
74788;SDS011;63313;48.258;12.518;2022-09-09T23:31:37;3.2399999999999998;;;1.6800000000000002;;
74788;SDS011;63313;48.258;12.518;2022-09-09T23:37:05;4.91;;;1.6099999999999999;;
74788;SDS011;63313;48.258;12.518;2022-09-09T23:42:32;4.08;;;1.2500000000000002;;
74788;SDS011;63313;48.258;12.518;2022-09-09T23:47:59;2.3000000000000003;;;1.6199999999999999;;
74788;SDS011;63313;48.258;12.518;2022-09-09T23:53:26;2.55;;;1.6600000000000001;;
74788;SDS011;63313;48.258;12.518;2022-09-09T23:58:53;2.48;;;1.16;;
